Time;durP1;ratioP1;P1;durP2;ratioP2;P2;SDS_P1;SDS_P2;PMS_P1;PMS_P2;Temp;Humidity;BMP_temperature;BMP_pressure;BME280_temperature;BME280_humidity;BME280_pressure;Samples;Min_cycle;Max_cycle;Signal;HPM_P1;HPM_P2
2021/08/21 00:01:36;;;;;;;;;;;;;;;22.07;49.32;101387.41;5113796;27;19936;-56
2021/08/21 00:04:07;;;;;;;;;;;;;;;22.08;49.16;101390.97;5116707;27;19994;-57
2021/08/21 00:06:35;;;;;;;;;;;;;;;22.07;49.13;101391.94;5116446;27;19969;-57
2021/08/21 00:09:04;;;;;;;;;;;;;;;22.06;49.30;101396.44;5114484;27;19924;-57
2021/08/21 00:11:32;;;;;;;;;;;;;;;22.07;49.44;101398.19;5114535;27;20033;-57
2021/08/21 00:14:01;;;;;;;;;;;;;;;22.07;49.52;101395.47;5104684;28;19928;-56
2021/08/21 00:16:29;;;;;;;;;;;;;;;22.07;49.55;101400.03;5111396;28;20012;-56
2021/08/21 00:18:57;;;;;;;;;;;;;;;22.07;49.46;101397.31;5118177;28;19928;-56
2021/08/21 00:21:25;;;;;;;;;;;;;;;22.06;49.49;101393.75;5118377;28;19927;-56
2021/08/21 00:23:53;;;;;;;;;;;;;;;22.06;49.17;101391.06;5109168;27;20001;-57
2021/08/21 00:26:21;;;;;;;;;;;;;;;22.04;49.43;101393.84;5103452;28;19951;-56
2021/08/21 00:28:49;;;;;;;;;;;;;;;22.04;49.38;101403.78;5107157;28;19953;-57
2021/08/21 00:31:20;;;;;;;;;;;;;;;22.05;49.32;101400.13;5105628;28;19924;-57
2021/08/21 00:33:49;;;;;;;;;;;;;;;22.03;49.22;101404.75;5106405;28;19939;-57
2021/08/21 00:36:16;;;;;;;;;;;;;;;22.03;49.44;101397.50;5109969;28;19932;-57
2021/08/21 00:38:44;;;;;;;;;;;;;;;22.03;49.29;101396.66;5108868;28;19932;-57
2021/08/21 00:41:13;;;;;;;;;;;;;;;22.04;49.50;101393.00;5107000;27;20010;-57
2021/08/21 00:43:41;;;;;;;;;;;;;;;22.03;49.45;101408.28;5105890;27;19939;-56
2021/08/21 00:46:09;;;;;;;;;;;;;;;22.03;49.37;101404.75;5108755;27;19961;-54
2021/08/21 00:48:39;;;;;;;;;;;;;;;22.02;49.47;101403.88;5109559;27;19946;-56
2021/08/21 00:51:07;;;;;;;;;;;;;;;22.03;49.28;101410.13;5101938;27;20364;-54
2021/08/21 00:53:35;;;;;;;;;;;;;;;22.03;49.21;101407.44;5114186;27;19946;-56
2021/08/21 00:56:04;;;;;;;;;;;;;;;22.01;49.29;101406.66;5099697;27;19932;-55
2021/08/21 00:58:33;;;;;;;;;;;;;;;22.01;49.32;101406.66;5112926;27;19942;-56
2021/08/21 01:01:02;;;;;;;;;;;;;;;22.02;49.36;101408.38;5108754;27;20026;-56
2021/08/21 01:03:31;;;;;;;;;;;;;;;22.00;49.28;101413.88;5105063;27;19928;-56
2021/08/21 01:06:01;;;;;;;;;;;;;;;22.00;49.49;101413.88;5108966;27;19924;-57
2021/08/21 01:08:30;;;;;;;;;;;;;;;22.00;49.51;101413.88;5099738;28;19956;-54
2021/08/21 01:11:07;;;;;;;;;;;;;;;21.99;49.50;101406.75;5102803;27;19928;-57
2021/08/21 01:13:35;;;;;;;;;;;;;;;21.99;49.78;101412.16;5103629;27;19924;-56
2021/08/21 01:16:03;;;;;;;;;;;;;;;22.00;49.55;101413.03;5108393;27;19955;-56
2021/08/21 01:18:31;;;;;;;;;;;;;;;21.99;49.56;101422.91;5106748;28;19956;-56
2021/08/21 01:21:03;;;;;;;;;;;;;;;21.99;49.73;101420.22;5145514;27;19988;-54
2021/08/21 01:23:31;;;;;;;;;;;;;;;21.98;49.53;101415.78;5097139;28;19928;-57
2021/08/21 01:26:04;;;;;;;;;;;;;;;21.98;49.48;101412.25;5106881;27;19928;-54
2021/08/21 01:28:50;;;;;;;;;;;;;;;21.98;49.63;101414.94;5127829;27;19924;-56
2021/08/21 01:31:40;;;;;;;;;;;;;;;21.97;49.65;101407.81;5103393;27;19928;-56
2021/08/21 01:34:08;;;;;;;;;;;;;;;21.97;49.68;101408.69;5114900;28;19999;-55
2021/08/21 01:36:41;;;;;;;;;;;;;;;21.96;49.58;101415.06;5109432;28;19970;-57
2021/08/21 01:39:28;;;;;;;;;;;;;;;21.98;49.64;101418.50;5108928;27;19943;-54
2021/08/21 01:42:01;;;;;;;;;;;;;;;21.97;49.68;101415.91;5105414;27;22175;-57
2021/08/21 01:44:31;;;;;;;;;;;;;;;21.96;49.62;101415.06;5133558;27;19963;-56
2021/08/21 01:47:00;;;;;;;;;;;;;;;21.97;49.51;101418.59;5110537;27;19932;-56
2021/08/21 01:49:28;;;;;;;;;;;;;;;21.95;49.52;101413.31;5106046;27;19924;-55
2021/08/21 01:52:04;;;;;;;;;;;;;;;21.95;49.76;101424.09;5106171;28;21362;-57
2021/08/21 01:54:33;;;;;;;;;;;;;;;21.95;49.64;101424.09;5110024;28;19930;-55
2021/08/21 01:57:03;;;;;;;;;;;;;;;21.94;49.47;101425.03;5103244;28;19927;-56
2021/08/21 01:59:43;;;;;;;;;;;;;;;21.95;49.64;101425.94;5105140;28;19924;-56
2021/08/21 02:02:20;;;;;;;;;;;;;;;21.94;49.64;101435.81;5139312;27;20002;-55
2021/08/21 02:04:58;;;;;;;;;;;;;;;21.95;49.74;101447.47;5104667;27;19924;-56
2021/08/21 02:07:26;;;;;;;;;;;;;;;21.95;49.76;101444.78;5106925;27;19924;-57
2021/08/21 02:09:54;;;;;;;;;;;;;;;21.93;49.66;101444.00;5108908;28;19924;-56
2021/08/21 02:12:22;;;;;;;;;;;;;;;21.92;49.55;101429.69;5111113;28;20336;-55
2021/08/21 02:15:01;;;;;;;;;;;;;;;21.92;49.76;101428.81;5108872;27;19930;-56
2021/08/21 02:17:30;;;;;;;;;;;;;;;21.91;49.47;101433.34;5109373;28;19928;-56
2021/08/21 02:20:24;;;;;;;;;;;;;;;21.91;49.74;101424.41;5088891;27;19924;-56
2021/08/21 02:22:52;;;;;;;;;;;;;;;21.91;49.59;101424.41;5107046;28;19928;-56
2021/08/21 02:25:20;;;;;;;;;;;;;;;21.91;49.65;101427.94;5103591;27;19928;-55
2021/08/21 02:27:57;;;;;;;;;;;;;;;21.92;49.46;101428.81;5121365;27;19996;-57
2021/08/21 02:30:27;;;;;;;;;;;;;;;21.91;49.69;101427.09;5106024;28;19924;-56
2021/08/21 02:32:55;;;;;;;;;;;;;;;21.91;49.66;101424.41;5099539;27;19924;-56
2021/08/21 02:35:23;;;;;;;;;;;;;;;21.89;49.56;101425.34;5107694;28;19927;-56
2021/08/21 02:37:51;;;;;;;;;;;;;;;21.90;49.82;101426.22;5099781;28;19951;-56
2021/08/21 02:40:20;;;;;;;;;;;;;;;21.88;49.75;101420.94;5105981;27;19927;-57
2021/08/21 02:42:49;;;;;;;;;;;;;;;21.88;49.69;101422.78;5107317;28;19932;-57
2021/08/21 02:45:17;;;;;;;;;;;;;;;21.87;49.71;101416.50;5107207;28;19932;-56
2021/08/21 02:47:47;;;;;;;;;;;;;;;21.87;49.70;101421.88;5107659;28;19950;-56
2021/08/21 02:50:16;;;;;;;;;;;;;;;21.87;50.01;101419.19;5101343;27;19924;-56
2021/08/21 02:52:44;;;;;;;;;;;;;;;21.88;49.80;101417.38;5111393;28;19945;-57
2021/08/21 02:55:12;;;;;;;;;;;;;;;21.88;49.86;101414.69;5108046;28;19924;-57
2021/08/21 02:57:44;;;;;;;;;;;;;;;21.87;49.89;101418.34;5110243;27;19924;-56
2021/08/21 03:00:13;;;;;;;;;;;;;;;21.88;49.99;101423.63;5110539;28;19950;-56
2021/08/21 03:02:48;;;;;;;;;;;;;;;21.86;49.92;101419.31;5098743;27;20062;-56
2021/08/21 03:05:16;;;;;;;;;;;;;;;21.86;50.02;101425.53;5105837;28;19946;-56
2021/08/21 03:07:45;;;;;;;;;;;;;;;21.85;50.02;101421.13;5100562;28;19928;-56
2021/08/21 03:10:14;;;;;;;;;;;;;;;21.85;50.16;101431.03;5102490;28;20026;-56
2021/08/21 03:12:54;;;;;;;;;;;;;;;21.85;50.07;101429.22;5110374;28;20371;-55
2021/08/21 03:15:24;;;;;;;;;;;;;;;21.84;50.24;101424.78;5104138;28;19932;-56
2021/08/21 03:17:54;;;;;;;;;;;;;;;21.84;50.16;101421.22;5100201;28;20360;-56
2021/08/21 03:20:22;;;;;;;;;;;;;;;21.84;50.02;101424.78;5106222;28;19924;-56
2021/08/21 03:22:50;;;;;;;;;;;;;;;21.84;50.14;101427.47;5109880;28;19975;-56
2021/08/21 03:25:23;;;;;;;;;;;;;;;21.84;50.27;101435.56;5105067;28;19924;-55
2021/08/21 03:27:52;;;;;;;;;;;;;;;21.83;50.09;101423.06;5120202;27;19951;-56
2021/08/21 03:30:21;;;;;;;;;;;;;;;21.84;50.21;101431.97;5095849;28;19928;-53
2021/08/21 03:33:00;;;;;;;;;;;;;;;21.83;50.20;101432.97;5113311;28;19928;-56
2021/08/21 03:35:28;;;;;;;;;;;;;;;21.83;50.32;101428.44;5112516;28;19935;-56
2021/08/21 03:37:56;;;;;;;;;;;;;;;21.82;50.08;101426.69;5105399;28;19934;-56
2021/08/21 03:40:25;;;;;;;;;;;;;;;21.82;50.22;101432.09;5110780;28;20342;-57
2021/08/21 03:43:12;;;;;;;;;;;;;;;21.81;50.21;101433.03;5097579;28;19928;-55
2021/08/21 03:45:41;;;;;;;;;;;;;;;21.82;50.17;101436.63;5108133;28;19987;-55
2021/08/21 03:48:12;;;;;;;;;;;;;;;21.82;50.10;101436.63;5114729;28;19931;-56
2021/08/21 03:50:41;;;;;;;;;;;;;;;21.80;50.34;101447.50;5127765;27;19932;-57
2021/08/21 03:53:09;;;;;;;;;;;;;;;21.81;50.20;101445.66;5102543;28;19932;-56
2021/08/21 03:55:49;;;;;;;;;;;;;;;21.81;50.23;101449.19;5108973;27;19947;-57
2021/08/21 03:58:17;;;;;;;;;;;;;;;21.80;50.26;101452.00;5103839;27;19924;-56
2021/08/21 04:00:45;;;;;;;;;;;;;;;21.81;50.32;101453.72;5141275;27;19924;-56
2021/08/21 04:03:19;;;;;;;;;;;;;;;21.81;50.14;101456.44;5106996;28;20335;-56
2021/08/21 04:05:48;;;;;;;;;;;;;;;21.80;50.25;101460.97;5112893;28;20767;-57
2021/08/21 04:08:16;;;;;;;;;;;;;;;21.79;50.14;101459.22;5108853;28;19946;-57
2021/08/21 04:10:46;;;;;;;;;;;;;;;21.81;50.21;101462.66;5104662;27;19932;-57
2021/08/21 04:13:15;;;;;;;;;;;;;;;21.80;50.12;101462.75;5136953;27;20446;-57
2021/08/21 04:15:43;;;;;;;;;;;;;;;21.80;50.01;101476.22;5113656;28;19928;-56
2021/08/21 04:18:12;;;;;;;;;;;;;;;21.79;50.31;101464.59;5113606;27;19928;-55
2021/08/21 04:20:42;;;;;;;;;;;;;;;21.80;49.98;101470.84;5113926;28;19932;-56
2021/08/21 04:23:10;;;;;;;;;;;;;;;21.79;50.08;101469.13;5123981;27;19932;-56
2021/08/21 04:25:42;;;;;;;;;;;;;;;21.79;50.09;101477.22;5100954;27;20053;-56
2021/08/21 04:28:11;;;;;;;;;;;;;;;21.80;50.29;101484.31;5102695;27;19928;-56
2021/08/21 04:30:39;;;;;;;;;;;;;;;21.79;50.24;101477.22;5111293;27;20030;-56
2021/08/21 04:33:08;;;;;;;;;;;;;;;21.78;50.38;101487.09;5105653;28;19932;-56
2021/08/21 04:35:37;;;;;;;;;;;;;;;21.79;50.44;101482.59;5112589;28;19992;-56
2021/08/21 04:38:07;;;;;;;;;;;;;;;21.78;50.31;101486.25;5111908;28;19924;-57
2021/08/21 04:40:46;;;;;;;;;;;;;;;21.78;50.07;101491.63;5098632;28;19948;-57
2021/08/21 04:43:15;;;;;;;;;;;;;;;21.77;50.16;101493.44;5111052;28;19924;-56
2021/08/21 04:45:43;;;;;;;;;;;;;;;21.77;50.37;101493.44;5111676;27;19924;-56
2021/08/21 04:48:12;;;;;;;;;;;;;;;21.77;50.36;101490.75;5112984;27;19932;-56
2021/08/21 04:50:41;;;;;;;;;;;;;;;21.77;50.33;101492.59;5111197;27;19958;-57
2021/08/21 04:53:10;;;;;;;;;;;;;;;21.77;50.22;101488.06;5102707;28;19997;-57
2021/08/21 04:55:44;;;;;;;;;;;;;;;21.77;50.45;101493.44;5102048;28;20391;-56
2021/08/21 04:58:14;;;;;;;;;;;;;;;21.76;50.14;101490.84;5136411;27;19978;-56
2021/08/21 05:00:43;;;;;;;;;;;;;;;21.77;49.99;101496.13;5114463;27;19924;-56
2021/08/21 05:03:18;;;;;;;;;;;;;;;21.77;50.44;101500.66;5109007;27;19955;-56
2021/08/21 05:05:48;;;;;;;;;;;;;;;21.77;50.21;101498.84;5109456;27;20079;-57
2021/08/21 05:08:17;;;;;;;;;;;;;;;21.77;50.38;101500.66;5106554;27;19924;-56
2021/08/21 05:10:53;;;;;;;;;;;;;;;21.76;50.38;101502.50;5110968;27;19939;-57
2021/08/21 05:13:22;;;;;;;;;;;;;;;21.77;50.31;101506.06;5104289;28;19954;-57
2021/08/21 05:15:50;;;;;;;;;;;;;;;21.77;50.27;101509.59;5111456;27;19928;-57
2021/08/21 05:18:39;;;;;;;;;;;;;;;21.78;50.24;101518.56;5110828;28;19939;-56
2021/08/21 05:21:24;;;;;;;;;;;;;;;21.77;50.38;101508.75;5097358;27;19924;-56
2021/08/21 05:23:54;;;;;;;;;;;;;;;21.77;51.10;101512.28;5105038;27;20019;-57
2021/08/21 05:26:23;;;;;;;;;;;;;;;21.80;50.83;101516.63;5107910;27;19950;-56
2021/08/21 05:28:51;;;;;;;;;;;;;;;21.80;50.74;101513.94;5109519;28;19985;-57
2021/08/21 05:31:19;;;;;;;;;;;;;;;21.80;51.05;101511.25;5110710;27;20315;-57
2021/08/21 05:33:47;;;;;;;;;;;;;;;21.81;51.06;101518.38;5107836;27;19931;-58
2021/08/21 05:36:16;;;;;;;;;;;;;;;21.82;50.99;101522.78;5106625;28;19954;-57
2021/08/21 05:38:43;;;;;;;;;;;;;;;21.83;51.34;101533.47;5108227;27;19927;-57
2021/08/21 05:41:13;;;;;;;;;;;;;;;21.87;51.70;101528.75;5108192;28;19928;-56
2021/08/21 05:43:41;;;;;;;;;;;;;;;21.88;51.82;101527.81;5109905;28;19932;-64
2021/08/21 05:46:09;;;;;;;;;;;;;;;21.91;51.80;101534.81;5104374;27;19932;-57
2021/08/21 05:48:37;;;;;;;;;;;;;;;21.93;51.46;101532.88;5101174;27;19985;-57
2021/08/21 05:51:05;;;;;;;;;;;;;;;21.95;51.53;101528.28;5094441;28;19932;-56
2021/08/21 05:53:33;;;;;;;;;;;;;;;21.96;51.51;101527.28;5104723;27;20000;-61
2021/08/21 05:56:01;;;;;;;;;;;;;;;21.96;51.84;101535.38;5108578;27;20049;-53
2021/08/21 05:58:30;;;;;;;;;;;;;;;21.97;52.19;101532.59;5111392;28;20005;-58
2021/08/21 06:00:58;;;;;;;;;;;;;;;21.97;51.98;101539.81;5105574;27;19989;-58
2021/08/21 06:03:26;;;;;;;;;;;;;;;21.98;51.38;101544.22;5102510;27;19966;-59
2021/08/21 06:05:54;;;;;;;;;;;;;;;21.99;51.22;101543.28;5110355;28;19927;-58
2021/08/21 06:08:22;;;;;;;;;;;;;;;21.99;51.40;101538.75;5115894;27;19987;-59
2021/08/21 06:10:57;;;;;;;;;;;;;;;21.99;51.83;101544.13;5139708;27;19928;-64
2021/08/21 06:13:26;;;;;;;;;;;;;;;22.00;53.25;101543.19;5108191;27;19963;-64
2021/08/21 06:15:56;;;;;;;;;;;;;;;22.03;54.78;101555.59;5107146;28;19935;-64
2021/08/21 06:18:24;;;;;;;;;;;;;;;22.05;55.22;101546.44;5099335;28;19923;-60
2021/08/21 06:20:52;;;;;;;;;;;;;;;22.07;54.71;101548.19;5103761;27;19954;-64
2021/08/21 06:23:20;;;;;;;;;;;;;;;22.10;56.71;101556.06;5103261;27;19932;-58
2021/08/21 06:25:48;;;;;;;;;;;;;;;22.09;56.19;101555.22;5111749;28;19978;-58
2021/08/21 06:28:16;;;;;;;;;;;;;;;22.10;55.52;101550.69;5106916;28;19924;-56
2021/08/21 06:30:45;;;;;;;;;;;;;;;22.13;54.33;101563.94;5105954;27;19932;-58
2021/08/21 06:33:14;;;;;;;;;;;;;;;22.15;54.31;101560.19;5100893;28;19924;-62
2021/08/21 06:35:42;;;;;;;;;;;;;;;22.16;53.72;101556.53;5105889;28;19934;-59
2021/08/21 06:38:10;;;;;;;;;;;;;;;22.19;53.01;101558.16;5109324;28;19935;-57
2021/08/21 06:40:38;;;;;;;;;;;;;;;22.20;52.49;101554.53;5109412;27;19988;-58
2021/08/21 06:43:06;;;;;;;;;;;;;;;22.21;52.20;101556.25;5108283;27;19951;-53
2021/08/21 06:45:54;;;;;;;;;;;;;;;22.25;52.27;101562.28;5101703;27;19928;-58
2021/08/21 06:48:24;;;;;;;;;;;;;;;22.28;51.91;101559.41;5102671;27;19966;-58
2021/08/21 06:50:51;;;;;;;;;;;;;;;22.28;51.67;101565.66;5106401;28;19928;-57
2021/08/21 06:53:19;;;;;;;;;;;;;;;22.30;51.48;101568.25;5110129;28;19932;-53
2021/08/21 06:55:47;;;;;;;;;;;;;;;22.31;51.02;101572.69;5104061;28;19931;-57
2021/08/21 06:58:15;;;;;;;;;;;;;;;22.33;50.99;101562.69;5106423;28;20275;-55
2021/08/21 07:00:43;;;;;;;;;;;;;;;22.28;49.95;101571.06;5107455;28;19983;-57
2021/08/21 07:03:12;;;;;;;;;;;;;;;22.18;47.16;101562.69;5112601;28;19932;-57
2021/08/21 07:05:42;;;;;;;;;;;;;;;22.14;46.89;101563.88;5110154;28;20020;-57
2021/08/21 07:08:10;;;;;;;;;;;;;;;22.11;47.34;101577.50;5114278;28;19974;-59
2021/08/21 07:10:39;;;;;;;;;;;;;;;22.10;46.79;101574.91;5102218;28;19951;-58
2021/08/21 07:13:07;;;;;;;;;;;;;;;22.08;46.30;101577.72;5099661;28;19952;-58
2021/08/21 07:15:35;;;;;;;;;;;;;;;22.11;46.67;101572.13;5103680;28;19928;-59
2021/08/21 07:18:04;;;;;;;;;;;;;;;22.17;47.41;101576.28;5103634;28;19974;-58
2021/08/21 07:20:31;;;;;;;;;;;;;;;22.21;47.40;101577.81;5107908;28;19928;-56
2021/08/21 07:23:01;;;;;;;;;;;;;;;22.28;48.14;101580.97;5109018;28;20379;-57
2021/08/21 07:25:29;;;;;;;;;;;;;;;22.25;48.28;101581.16;5104793;28;19973;-61
2021/08/21 07:27:57;;;;;;;;;;;;;;;22.15;48.70;101587.13;5103446;28;19924;-61
2021/08/21 07:30:25;;;;;;;;;;;;;;;22.18;48.05;101584.25;5103704;27;20262;-59
2021/08/21 07:32:53;;;;;;;;;;;;;;;22.21;48.12;101584.06;5110625;27;20061;-60
2021/08/21 07:35:21;;;;;;;;;;;;;;;22.27;47.68;101592.72;5104636;27;20034;-62
2021/08/21 07:37:49;;;;;;;;;;;;;;;22.23;48.56;101592.03;5112846;27;19940;-59
2021/08/21 07:40:19;;;;;;;;;;;;;;;22.18;47.27;101591.47;5109910;27;19946;-59
2021/08/21 07:42:47;;;;;;;;;;;;;;;22.21;47.68;101597.53;5107281;28;20062;-64
2021/08/21 07:45:16;;;;;;;;;;;;;;;22.16;47.15;101594.25;5107588;27;20828;-58
2021/08/21 07:47:49;;;;;;;;;;;;;;;22.26;46.44;101597.25;5115803;27;19943;-58
2021/08/21 07:50:17;;;;;;;;;;;;;;;22.18;47.20;101602.25;5096076;28;19924;-59
2021/08/21 07:52:46;;;;;;;;;;;;;;;22.15;47.30;101607.84;5096338;28;19924;-64
2021/08/21 07:55:14;;;;;;;;;;;;;;;22.12;46.90;101608.88;5088521;28;19975;-59
2021/08/21 07:57:43;;;;;;;;;;;;;;;22.14;47.18;101606.97;5080391;28;19928;-59
2021/08/21 08:00:13;;;;;;;;;;;;;;;22.20;47.22;101605.72;5086644;28;19936;-58
2021/08/21 08:02:43;;;;;;;;;;;;;;;22.18;47.13;101613.91;5084531;28;20014;-61
2021/08/21 08:05:11;;;;;;;;;;;;;;;22.15;47.11;101613.22;5096640;28;19924;-59
2021/08/21 08:07:39;;;;;;;;;;;;;;;22.13;46.83;101609.75;5089830;28;20371;-60
2021/08/21 08:10:08;;;;;;;;;;;;;;;22.14;46.45;101611.47;5083723;28;19938;-60
2021/08/21 08:12:36;;;;;;;;;;;;;;;22.17;46.30;101622.09;5084362;28;19924;-64
2021/08/21 08:15:06;;;;;;;;;;;;;;;22.20;46.01;101625.44;5092814;28;19947;-60
2021/08/21 08:17:34;;;;;;;;;;;;;;;22.26;45.75;101623.31;5092474;28;20414;-63
2021/08/21 08:20:02;;;;;;;;;;;;;;;22.31;45.43;101621.19;5088873;28;20009;-58
2021/08/21 08:22:30;;;;;;;;;;;;;;;22.37;44.98;101623.53;5090001;28;19936;-57
2021/08/21 08:24:58;;;;;;;;;;;;;;;22.27;45.85;101625.91;5086194;28;19933;-60
2021/08/21 08:27:26;;;;;;;;;;;;;;;22.21;46.08;101629.88;5088167;28;19978;-57
2021/08/21 08:29:54;;;;;;;;;;;;;;;22.19;45.50;101629.13;5088438;28;20019;-57
2021/08/21 08:32:23;;;;;;;;;;;;;;;22.20;45.39;101633.50;5084079;28;20791;-59
2021/08/21 08:34:51;;;;;;;;;;;;;;;22.25;44.71;101625.16;5084353;28;19995;-57
2021/08/21 08:37:19;;;;;;;;;;;;;;;22.18;44.57;101627.38;5078666;28;19946;-56
2021/08/21 08:39:47;;;;;;;;;;;;;;;22.34;44.45;101635.34;5081804;28;20475;-53
2021/08/21 08:42:18;;;;;;;;;;;;;;;22.43;44.47;101633.06;5082467;28;20111;-57
2021/08/21 08:44:47;;;;;;;;;;;;;;;22.49;44.16;101640.75;5082965;28;19959;-51
2021/08/21 08:47:15;;;;;;;;;;;;;;;22.51;42.88;101637.00;5084470;28;19925;-54
2021/08/21 08:49:46;;;;;;;;;;;;;;;22.37;42.57;101639.72;5100311;28;19934;-58
2021/08/21 08:52:14;;;;;;;;;;;;;;;22.48;41.99;101637.22;5108191;28;20460;-57
2021/08/21 08:54:42;;;;;;;;;;;;;;;22.38;42.97;101644.16;5107811;28;19969;-60
2021/08/21 08:57:17;;;;;;;;;;;;;;;22.32;44.08;101650.75;5102864;28;19973;-57
2021/08/21 08:59:45;;;;;;;;;;;;;;;22.30;44.46;101650.00;5105583;28;19924;-57
2021/08/21 09:02:13;;;;;;;;;;;;;;;22.28;44.91;101651.91;5120230;28;19989;-58
2021/08/21 09:04:42;;;;;;;;;;;;;;;22.28;45.40;101656.44;5110059;28;19924;-57
2021/08/21 09:07:12;;;;;;;;;;;;;;;22.45;45.34;101656.25;5110634;28;19935;-57
2021/08/21 09:09:40;;;;;;;;;;;;;;;22.42;45.50;101659.16;5108730;28;20012;-57
2021/08/21 09:12:22;;;;;;;;;;;;;;;22.32;46.03;101661.53;5112082;28;19972;-57
2021/08/21 09:14:50;;;;;;;;;;;;;;;22.33;46.14;101654.31;5111343;28;19950;-57
2021/08/21 09:17:20;;;;;;;;;;;;;;;22.45;46.05;101653.56;5111057;28;20484;-57
2021/08/21 09:19:49;;;;;;;;;;;;;;;22.47;46.35;101654.34;5103945;28;20031;-57
2021/08/21 09:22:18;;;;;;;;;;;;;;;22.57;45.92;101660.00;5103254;28;19928;-57
2021/08/21 09:24:47;;;;;;;;;;;;;;;22.62;46.16;101654.34;5121215;28;19951;-55
2021/08/21 09:27:15;;;;;;;;;;;;;;;22.48;46.85;101650.69;5111625;28;19924;-57
2021/08/21 09:29:44;;;;;;;;;;;;;;;22.40;47.24;101653.00;5111444;28;19930;-56
2021/08/21 09:32:12;;;;;;;;;;;;;;;22.37;47.38;101658.59;5112040;28;19928;-57
2021/08/21 09:34:40;;;;;;;;;;;;;;;22.35;47.44;101658.69;5106238;28;20422;-57
2021/08/21 09:37:08;;;;;;;;;;;;;;;22.36;47.79;101663.13;5106264;28;19928;-56
2021/08/21 09:39:39;;;;;;;;;;;;;;;22.41;47.53;101665.50;5106414;28;19928;-57
2021/08/21 09:42:08;;;;;;;;;;;;;;;22.52;47.30;101664.81;5113825;28;19928;-57
2021/08/21 09:44:37;;;;;;;;;;;;;;;22.63;46.67;101656.94;5110144;28;19973;-59
2021/08/21 09:47:18;;;;;;;;;;;;;;;22.70;46.85;101657.41;5115050;28;20014;-56
2021/08/21 09:49:46;;;;;;;;;;;;;;;22.46;47.54;101659.84;5097701;28;19987;-57
2021/08/21 09:52:15;;;;;;;;;;;;;;;22.41;47.80;101657.44;5104701;28;19928;-57
2021/08/21 09:54:46;;;;;;;;;;;;;;;22.42;47.82;101663.66;5108560;28;19931;-58
2021/08/21 09:57:21;;;;;;;;;;;;;;;22.40;48.06;101661.06;5110107;28;20199;-57
2021/08/21 09:59:55;;;;;;;;;;;;;;;22.40;47.94;101660.22;5101977;28;19946;-57
2021/08/21 10:02:24;;;;;;;;;;;;;;;22.42;47.92;101660.97;5106774;28;19927;-54
2021/08/21 10:04:52;;;;;;;;;;;;;;;22.40;48.23;101665.63;5100947;28;19969;-57
2021/08/21 10:07:23;;;;;;;;;;;;;;;22.41;48.32;101668.19;5118897;28;19924;-57
2021/08/21 10:09:55;;;;;;;;;;;;;;;22.50;48.04;101662.22;5108085;28;19928;-57
2021/08/21 10:12:23;;;;;;;;;;;;;;;22.42;48.47;101661.84;5103453;28;19928;-57
2021/08/21 10:14:51;;;;;;;;;;;;;;;22.40;48.35;101666.47;5100311;28;19924;-57
2021/08/21 10:17:20;;;;;;;;;;;;;;;22.37;48.35;101667.53;5110153;28;19938;-58
2021/08/21 10:19:48;;;;;;;;;;;;;;;22.37;48.38;101669.38;5104992;28;19924;-57
2021/08/21 10:22:18;;;;;;;;;;;;;;;22.40;48.53;101666.47;5110823;28;19931;-57
2021/08/21 10:24:48;;;;;;;;;;;;;;;22.38;48.64;101660.31;5103584;28;19961;-57
2021/08/21 10:27:28;;;;;;;;;;;;;;;22.38;48.63;101674.66;5104901;28;19964;-57
2021/08/21 10:30:04;;;;;;;;;;;;;;;22.61;47.98;101671.47;5099953;28;19924;-56
2021/08/21 10:32:32;;;;;;;;;;;;;;;22.71;47.75;101665.38;5096406;28;19963;-57
2021/08/21 10:35:01;;;;;;;;;;;;;;;22.58;47.98;101667.13;5108980;28;20014;-56
2021/08/21 10:37:33;;;;;;;;;;;;;;;22.48;48.41;101663.28;5114013;28;19999;-57
2021/08/21 10:40:16;;;;;;;;;;;;;;;22.42;48.51;101664.56;5109068;28;19928;-55
2021/08/21 10:42:53;;;;;;;;;;;;;;;22.58;47.65;101661.75;5111723;27;19951;-57
2021/08/21 10:45:36;;;;;;;;;;;;;;;22.71;47.54;101672.63;5106253;28;19987;-57
2021/08/21 10:48:05;;;;;;;;;;;;;;;22.77;47.60;101669.53;5100041;28;19959;-56
2021/08/21 10:50:34;;;;;;;;;;;;;;;22.81;47.65;101675.56;5111797;28;19923;-57
2021/08/21 10:53:07;;;;;;;;;;;;;;;22.83;47.52;101662.88;5110038;28;19924;-57
2021/08/21 10:55:36;;;;;;;;;;;;;;;22.85;47.31;101675.28;5100311;28;19932;-57
2021/08/21 10:58:10;;;;;;;;;;;;;;;22.90;47.29;101674.13;5133398;27;20429;-57
2021/08/21 11:00:42;;;;;;;;;;;;;;;22.70;47.88;101673.56;5103791;28;20003;-57
2021/08/21 11:03:11;;;;;;;;;;;;;;;22.61;48.22;101671.47;5107458;28;19936;-56
2021/08/21 11:05:52;;;;;;;;;;;;;;;22.76;47.72;101677.69;5111976;28;19924;-57
2021/08/21 11:08:21;;;;;;;;;;;;;;;22.90;47.39;101684.91;5112015;28;20396;-55
2021/08/21 11:10:58;;;;;;;;;;;;;;;22.85;47.14;101678.00;5111366;28;19924;-55
2021/08/21 11:13:41;;;;;;;;;;;;;;;22.94;47.05;101672.94;5097894;28;20027;-55
2021/08/21 11:16:12;;;;;;;;;;;;;;;23.00;47.24;101675.25;5100701;28;19924;-56
2021/08/21 11:18:44;;;;;;;;;;;;;;;23.00;47.14;101680.66;5103484;28;19950;-56
2021/08/21 11:21:35;;;;;;;;;;;;;;;23.03;47.24;101678.63;5107535;28;19991;-56
2021/08/21 11:24:03;;;;;;;;;;;;;;;22.78;47.73;101681.19;5113447;28;20388;-56
2021/08/21 11:26:31;;;;;;;;;;;;;;;22.87;47.78;101678.72;5096161;28;20288;-57
2021/08/21 11:29:09;;;;;;;;;;;;;;;22.99;47.50;101684.31;5109179;28;19927;-57
2021/08/21 11:31:55;;;;;;;;;;;;;;;23.03;47.27;101670.53;5114365;28;19964;-56
2021/08/21 11:34:23;;;;;;;;;;;;;;;23.06;47.18;101677.56;5107573;28;19928;-56
2021/08/21 11:36:51;;;;;;;;;;;;;;;22.81;47.73;101683.66;5102977;28;20598;-56
2021/08/21 11:39:20;;;;;;;;;;;;;;;22.74;47.60;101682.34;5105370;28;19934;-57
2021/08/21 11:41:54;;;;;;;;;;;;;;;22.74;47.65;101685.03;5103580;28;19946;-57
2021/08/21 11:44:30;;;;;;;;;;;;;;;22.91;47.58;101683.94;5106514;28;19935;-57
2021/08/21 11:47:06;;;;;;;;;;;;;;;22.92;47.58;101691.09;5111635;28;20018;-57
2021/08/21 11:49:34;;;;;;;;;;;;;;;22.95;47.59;101678.25;5101433;28;19999;-57
2021/08/21 11:52:03;;;;;;;;;;;;;;;23.06;47.50;101682.97;5114226;28;20022;-54
2021/08/21 11:54:31;;;;;;;;;;;;;;;23.11;47.19;101682.63;5098561;28;20015;-56
2021/08/21 11:56:59;;;;;;;;;;;;;;;22.97;47.48;101689.81;5102337;28;19973;-56
2021/08/21 11:59:28;;;;;;;;;;;;;;;22.82;47.70;101685.41;5100585;28;19970;-56
2021/08/21 12:02:00;;;;;;;;;;;;;;;22.89;47.84;101694.84;5109930;28;19928;-57
2021/08/21 12:04:30;;;;;;;;;;;;;;;22.99;47.57;101695.09;5103617;28;19931;-57
2021/08/21 12:06:58;;;;;;;;;;;;;;;23.08;47.06;101690.94;5099721;28;19924;-57
2021/08/21 12:09:26;;;;;;;;;;;;;;;23.11;47.03;101688.03;5096147;28;19934;-57
2021/08/21 12:11:54;;;;;;;;;;;;;;;23.05;47.40;101687.47;5114940;28;19924;-56
2021/08/21 12:14:23;;;;;;;;;;;;;;;23.03;47.62;101686.72;5100037;28;19999;-56
2021/08/21 12:16:55;;;;;;;;;;;;;;;23.01;47.57;101690.50;5116154;28;19953;-59
2021/08/21 12:19:25;;;;;;;;;;;;;;;23.02;47.50;101690.38;5106884;28;20521;-57
2021/08/21 12:21:57;;;;;;;;;;;;;;;23.14;47.00;101687.84;5099703;28;19924;-56
2021/08/21 12:24:25;;;;;;;;;;;;;;;23.18;46.77;101695.66;5111856;28;19938;-57
2021/08/21 12:26:53;;;;;;;;;;;;;;;23.07;47.35;101686.50;5110302;28;19936;-56
2021/08/21 12:29:23;;;;;;;;;;;;;;;22.93;47.69;101685.59;5108882;28;20323;-58
2021/08/21 12:31:51;;;;;;;;;;;;;;;22.90;47.78;101687.59;5117516;28;19923;-57
2021/08/21 12:34:20;;;;;;;;;;;;;;;22.86;47.57;101690.53;5111103;28;19930;-56
2021/08/21 12:36:48;;;;;;;;;;;;;;;22.85;47.68;101694.16;5096935;28;19924;-57
2021/08/21 12:39:21;;;;;;;;;;;;;;;22.97;47.62;101700.59;5105099;28;19935;-56
2021/08/21 12:41:51;;;;;;;;;;;;;;;23.11;47.42;101693.44;5108284;28;19942;-57
2021/08/21 12:44:19;;;;;;;;;;;;;;;23.16;47.56;101691.34;5103143;28;19928;-57
2021/08/21 12:46:54;;;;;;;;;;;;;;;23.05;47.40;101689.31;5111899;28;20335;-56
2021/08/21 12:49:30;;;;;;;;;;;;;;;23.03;47.45;101693.94;5102125;28;20578;-57
2021/08/21 12:51:59;;;;;;;;;;;;;;;23.15;47.08;101686.91;5104148;28;19988;-57